Terminal Aerodrome Forecast
Issued by NWS Springfield, MO

Home | Current Version | Previous Version | Text Only | Print | Product List | Glossary On
Versions: 1 2 3 4 5 6 7 8 9 10 11 12 13
000
FTUS43 KSGF 251720
TAFSGF
TAF
KSGF 251720Z 2518/2618 31011KT P6SM VCTS SCT035CB BKN050
     FM260000 33008KT P6SM VCSH BKN040
     FM261000 34006KT P6SM SCT200=

USA.gov is the U.S. government's official web portal to all federal, state and local government web resources and services.